createdAt,value
2018-07-13T00:01:51.656Z,101708.17
2018-07-13T00:04:19.265Z,101714.06
2018-07-13T00:06:46.936Z,101710.61
2018-07-13T00:09:15.558Z,101710.25
2018-07-13T00:11:43.174Z,101708.66
2018-07-13T00:14:13.134Z,101703.38
2018-07-13T00:16:41.678Z,101708.39
2018-07-13T00:19:09.376Z,101706.20
2018-07-13T00:21:37.064Z,101710.25
2018-07-13T00:24:05.278Z,101699.52
2018-07-13T00:26:32.898Z,101696.83
2018-07-13T00:29:00.554Z,101692.85
2018-07-13T00:31:28.387Z,101692.49
2018-07-13T00:33:56.625Z,101693.84
2018-07-13T00:36:24.324Z,101690.78
2018-07-13T00:38:53.288Z,101690.27
2018-07-13T00:41:21.544Z,101688.68
2018-07-13T00:43:49.476Z,101686.22
2018-07-13T00:46:18.029Z,101684.98
2018-07-13T00:48:45.699Z,101552.70
2018-07-13T00:51:13.421Z,101678.11
2018-07-13T00:53:41.892Z,101678.72
2018-07-13T00:56:09.537Z,101679.83
2018-07-13T00:58:37.288Z,101686.70
2018-07-13T01:01:05.227Z,101688.17
2018-07-13T01:03:33.068Z,101682.38
2018-07-13T01:06:00.888Z,101681.54
2018-07-13T01:08:29.001Z,101675.38
2018-07-13T01:10:56.696Z,101676.86
2018-07-13T01:13:24.408Z,101677.73
2018-07-13T01:15:52.452Z,101683.25
2018-07-13T01:18:20.106Z,101686.91
2018-07-13T01:20:47.748Z,101689.73
2018-07-13T01:23:16.107Z,101687.16
2018-07-13T01:25:43.776Z,101681.87
2018-07-13T01:28:11.428Z,101681.87
2018-07-13T01:30:39.605Z,101675.71
2018-07-13T01:33:07.268Z,101670.42
2018-07-13T01:35:34.983Z,101668.71
2018-07-13T01:38:02.870Z,101668.35
2018-07-13T01:40:30.592Z,101671.66
2018-07-13T01:42:58.225Z,101670.42
2018-07-13T01:45:26.260Z,101672.88
2018-07-13T01:47:53.865Z,101683.41
2018-07-13T01:50:21.548Z,101680.59
2018-07-13T01:52:49.592Z,101683.53
2018-07-13T01:55:17.480Z,101682.05
2018-07-13T01:57:45.059Z,101684.00
2018-07-13T02:00:13.189Z,101681.05
2018-07-13T02:02:40.825Z,101687.92
2018-07-13T02:05:08.697Z,101688.13
2018-07-13T02:07:36.868Z,101696.86
2018-07-13T02:10:04.639Z,101691.18
2018-07-13T02:12:32.266Z,101689.11
2018-07-13T02:15:00.323Z,101688.95
2018-07-13T02:17:27.977Z,101693.23
2018-07-13T02:19:55.628Z,101690.76
2018-07-13T02:22:23.611Z,101682.89
2018-07-13T02:24:51.309Z,101681.74
2018-07-13T02:27:19.300Z,101679.90
2018-07-13T02:29:47.473Z,101682.80
2018-07-13T02:32:15.140Z,101686.23
2018-07-13T02:34:42.774Z,101673.92
2018-07-13T02:37:10.861Z,101676.38
2018-07-13T02:39:38.521Z,101678.83
2018-07-13T02:42:06.251Z,101672.67
2018-07-13T02:44:34.353Z,101672.42
2018-07-13T02:47:02.072Z,101672.14
2018-07-13T02:49:29.764Z,101669.95
2018-07-13T02:51:57.713Z,101671.89
2018-07-13T02:54:25.624Z,101675.07
2018-07-13T02:56:53.313Z,101687.72
2018-07-13T02:59:21.458Z,101673.83
2018-07-13T03:01:49.243Z,101676.53
2018-07-13T03:04:16.863Z,101670.30
2018-07-13T03:06:45.271Z,101671.64
2018-07-13T03:09:13.041Z,101679.23
2018-07-13T03:11:41.038Z,101677.87
2018-07-13T03:14:09.041Z,101675.94
2018-07-13T03:16:37.406Z,101674.00
2018-07-13T03:19:05.241Z,101674.73
2018-07-13T03:21:33.191Z,101674.13
2018-07-13T03:24:00.978Z,101678.43
2018-07-13T03:26:28.736Z,101680.53
2018-07-13T03:28:56.719Z,101681.77
2018-07-13T03:31:24.437Z,101691.11
2018-07-13T03:33:52.075Z,101677.97
2018-07-13T03:36:20.110Z,101681.91
2018-07-13T03:38:47.735Z,101684.89
2018-07-13T03:41:15.377Z,101680.72
2018-07-13T03:43:43.456Z,101676.92
2018-07-13T03:46:11.062Z,101678.03
2018-07-13T03:48:38.837Z,101674.74
2018-07-13T03:51:06.996Z,101682.14
2018-07-13T03:53:34.798Z,101671.73
2018-07-13T03:56:02.713Z,101674.08
2018-07-13T03:58:30.730Z,101668.92
2018-07-13T04:00:58.331Z,101673.25
2018-07-13T04:03:25.997Z,101673.02
2018-07-13T04:05:53.924Z,101683.70
2018-07-13T04:08:21.690Z,101673.50
2018-07-13T04:10:49.389Z,101677.20
2018-07-13T04:13:17.367Z,101678.36
2018-07-13T04:15:45.307Z,101678.84
2018-07-13T04:18:18.807Z,101676.30
2018-07-13T04:20:47.054Z,101678.64
2018-07-13T04:23:14.748Z,101680.59
2018-07-13T04:25:42.480Z,101681.23
2018-07-13T04:28:11.615Z,101674.72
2018-07-13T04:30:39.489Z,101678.05
2018-07-13T04:33:07.089Z,101678.20
2018-07-13T04:35:35.045Z,101681.51
2018-07-13T04:38:02.663Z,101645.87
2018-07-13T04:40:30.360Z,101678.33
2018-07-13T04:42:58.271Z,101682.26
2018-07-13T04:45:26.183Z,101681.78
2018-07-13T04:47:53.918Z,101679.95
2018-07-13T04:50:22.074Z,101678.95
2018-07-13T04:52:49.781Z,101680.55
2018-07-13T04:55:17.605Z,101680.70
2018-07-13T04:57:45.697Z,101681.30
2018-07-13T05:00:13.465Z,101678.11
2018-07-13T05:02:41.193Z,101671.05
2018-07-13T05:05:09.206Z,101669.45
2018-07-13T05:07:37.065Z,101669.92
2018-07-13T05:10:05.455Z,101668.72
2018-07-13T05:12:34.838Z,101665.25
2018-07-13T05:15:02.530Z,101663.17
2018-07-13T05:17:30.170Z,101663.67
2018-07-13T05:19:58.167Z,101665.14
2018-07-13T05:22:25.959Z,101664.89
2018-07-13T05:24:53.721Z,101662.57
2018-07-13T05:27:21.772Z,101661.33
2018-07-13T05:29:49.500Z,101668.20
2018-07-13T05:32:17.430Z,101663.77
2018-07-13T05:34:45.397Z,101671.16
2018-07-13T05:37:13.202Z,101660.82
2018-07-13T05:39:40.957Z,101660.92
2018-07-13T05:42:09.134Z,101656.36
2018-07-13T05:44:36.956Z,101655.98
2018-07-13T05:47:04.700Z,101650.58
2018-07-13T05:49:32.820Z,101652.90
2018-07-13T05:52:00.695Z,101650.65
2018-07-13T05:54:29.452Z,101656.10
2018-07-13T05:56:58.541Z,101653.01
2018-07-13T05:59:27.089Z,101657.16
2018-07-13T06:01:54.821Z,101656.30
2018-07-13T06:04:22.985Z,101656.78
2018-07-13T06:06:50.723Z,101661.81
2018-07-13T06:09:18.464Z,101657.23
2018-07-13T06:11:46.735Z,101655.84
2018-07-13T06:14:14.457Z,101658.54
2018-07-13T06:16:42.992Z,101653.22
2018-07-13T06:19:10.899Z,101647.27
2018-07-13T06:21:39.353Z,101645.03
2018-07-13T06:24:07.278Z,101644.64
2018-07-13T06:26:35.170Z,101636.47
2018-07-13T06:29:02.865Z,101642.70
2018-07-13T06:31:30.678Z,101639.11
2018-07-13T06:33:58.716Z,101637.61
2018-07-13T06:36:26.445Z,101639.78
2018-07-13T06:38:54.195Z,101636.19
2018-07-13T06:41:22.297Z,101634.15
2018-07-13T06:43:50.107Z,101630.68
2018-07-13T06:46:17.809Z,101635.08
2018-07-13T06:48:45.760Z,101631.44
2018-07-13T06:51:13.512Z,101634.61
2018-07-13T06:53:41.276Z,101631.62
2018-07-13T06:56:09.321Z,101634.27
2018-07-13T06:58:48.344Z,101633.76
2018-07-13T07:01:16.193Z,101631.47
2018-07-13T07:04:49.925Z,101509.99
2018-07-13T07:07:26.596Z,101638.92
2018-07-13T07:09:55.105Z,101635.45
2018-07-13T07:12:33.225Z,101639.23
2018-07-13T07:15:01.197Z,101634.89
2018-07-13T07:17:29.114Z,101631.66
2018-07-13T07:19:56.884Z,101633.95
2018-07-13T07:22:24.526Z,101635.75
2018-07-13T07:24:52.434Z,101632.62
2018-07-13T07:27:20.309Z,101637.98
2018-07-13T07:29:48.021Z,101629.41
2018-07-13T07:32:15.954Z,101621.70
2018-07-13T07:34:43.783Z,101625.84
2018-07-13T07:37:11.452Z,101629.39
2018-07-13T07:39:39.225Z,101624.36
2018-07-13T07:42:06.997Z,101626.51
2018-07-13T07:44:34.741Z,101626.45
2018-07-13T07:47:02.638Z,101625.65
2018-07-13T07:49:31.260Z,101624.73
2018-07-13T07:51:58.909Z,101625.80
2018-07-13T07:54:26.711Z,101628.64
2018-07-13T07:57:09.286Z,101624.28
2018-07-13T07:59:37.681Z,101617.19
2018-07-13T08:02:05.359Z,101616.90
2018-07-13T08:04:33.306Z,101620.16
2018-07-13T08:07:01.536Z,101618.89
2018-07-13T08:09:28.899Z,101619.44
2018-07-13T08:11:56.728Z,101621.58
2018-07-13T08:14:25.407Z,101620.64
2018-07-13T08:16:53.020Z,101622.58
2018-07-13T08:19:20.840Z,101620.78
2018-07-13T08:21:49.413Z,101620.83
2018-07-13T08:24:19.508Z,101619.55
2018-07-13T08:26:47.534Z,101618.59
2018-07-13T08:29:16.473Z,101619.02
2018-07-13T08:31:44.090Z,101617.06
2018-07-13T08:34:12.514Z,101615.10
2018-07-13T08:36:40.194Z,101613.70
2018-07-13T08:39:08.697Z,101610.01
2018-07-13T08:41:36.466Z,101610.62
2018-07-13T08:44:04.264Z,101608.16
2018-07-13T08:46:31.977Z,101616.10
2018-07-13T08:48:59.785Z,101604.08
2018-07-13T08:51:27.632Z,101597.34
2018-07-13T08:53:55.466Z,101592.80
2018-07-13T08:56:23.406Z,101589.63
2018-07-13T08:58:51.985Z,101587.80
2018-07-13T09:01:19.691Z,101589.72
2018-07-13T09:03:47.527Z,101591.12
2018-07-13T09:06:15.454Z,101580.94
2018-07-13T09:08:43.077Z,101580.97
2018-07-13T09:11:10.845Z,101578.80
2018-07-13T09:13:38.745Z,101577.50
2018-07-13T09:16:06.665Z,101578.06
2018-07-13T09:18:34.390Z,101571.77
2018-07-13T09:21:02.169Z,101579.36
2018-07-13T09:23:29.937Z,101568.64
2018-07-13T09:25:57.868Z,101575.48
2018-07-13T09:28:25.824Z,101576.37
2018-07-13T09:30:53.664Z,101574.20
2018-07-13T09:33:21.649Z,101568.59
2018-07-13T09:35:49.580Z,101563.33
2018-07-13T09:38:17.206Z,101563.88
2018-07-13T09:40:45.343Z,101555.72
2018-07-13T09:43:13.327Z,101555.28
2018-07-13T09:45:40.988Z,101555.30
2018-07-13T09:48:09.028Z,101555.01
2018-07-13T09:50:36.725Z,101553.00
2018-07-13T09:53:04.502Z,101550.88
2018-07-13T09:55:32.329Z,101547.39
2018-07-13T09:58:00.243Z,101540.33
2018-07-13T10:00:33.435Z,101541.10
2018-07-13T10:03:01.711Z,101538.63
2018-07-13T10:05:29.435Z,101540.45
2018-07-13T10:07:57.193Z,101540.36
2018-07-13T10:10:25.255Z,101539.38
2018-07-13T10:12:53.011Z,101540.29
2018-07-13T10:15:20.790Z,101543.55
2018-07-13T10:17:48.793Z,101550.23
2018-07-13T10:20:16.469Z,101546.11
2018-07-13T10:22:44.219Z,101547.68
2018-07-13T10:25:12.949Z,101542.02
2018-07-13T10:27:40.702Z,101538.37
2018-07-13T10:30:11.216Z,101537.69
2018-07-13T10:32:41.559Z,101533.53
2018-07-13T10:35:09.717Z,101536.26
2018-07-13T10:37:39.309Z,101533.14
2018-07-13T10:40:07.250Z,101525.36
2018-07-13T10:42:35.048Z,101532.14
2018-07-13T10:45:03.053Z,101527.99
2018-07-13T10:47:30.901Z,101526.22
2018-07-13T10:49:58.551Z,101522.58
2018-07-13T10:52:26.228Z,101531.48
2018-07-13T10:54:54.206Z,101524.39
2018-07-13T10:57:21.833Z,101528.96
2018-07-13T10:59:49.499Z,101529.95
2018-07-13T11:02:17.406Z,101525.10
2018-07-13T11:04:44.994Z,101513.07
2018-07-13T11:07:13.609Z,101487.09
2018-07-13T11:09:41.394Z,101508.67
2018-07-13T11:12:09.040Z,101510.22
2018-07-13T11:14:36.839Z,101512.77
2018-07-13T11:17:04.867Z,101514.28
2018-07-13T11:19:32.646Z,101508.10
2018-07-13T11:22:00.224Z,101513.89
2018-07-13T11:24:28.149Z,101510.59
2018-07-13T11:26:55.744Z,101504.59
2018-07-13T11:29:23.360Z,101506.64
2018-07-13T11:31:51.472Z,101512.94
2018-07-13T11:34:19.079Z,101509.82
2018-07-13T11:36:46.707Z,101507.56
2018-07-13T11:39:14.571Z,101509.08
2018-07-13T11:41:42.239Z,101519.86
2018-07-13T11:44:09.918Z,101524.49
2018-07-13T11:46:37.820Z,101523.66
2018-07-13T11:49:05.791Z,101519.55
2018-07-13T11:51:33.391Z,101522.48
2018-07-13T11:54:02.152Z,101523.49
2018-07-13T11:56:29.802Z,101525.86
2018-07-13T11:58:57.488Z,101519.00
2018-07-13T12:01:25.220Z,101524.12
2018-07-13T12:03:52.859Z,101531.14
2018-07-13T12:06:20.437Z,101527.91
2018-07-13T12:08:48.410Z,101537.58
2018-07-13T12:11:16.097Z,101525.91
2018-07-13T12:13:43.804Z,101525.59
2018-07-13T12:16:11.850Z,101525.91
2018-07-13T12:18:39.597Z,101520.23
2018-07-13T12:21:07.421Z,101521.23
2018-07-13T12:23:35.297Z,101516.61
2018-07-13T12:26:02.962Z,101526.59
2018-07-13T12:28:30.591Z,101518.75
2018-07-13T12:30:58.679Z,101519.88
2018-07-13T12:33:26.518Z,101518.08
2018-07-13T12:35:54.141Z,101511.79
2018-07-13T12:38:22.045Z,101512.89
2018-07-13T12:40:49.900Z,101510.84
2018-07-13T12:43:17.612Z,101514.44
2018-07-13T12:45:45.595Z,101515.50
2018-07-13T12:48:13.256Z,101515.23
2018-07-13T12:50:41.242Z,101508.25
2018-07-13T12:53:09.291Z,101505.38
2018-07-13T12:55:36.945Z,101503.45
2018-07-13T12:58:04.636Z,101501.08
2018-07-13T13:00:32.728Z,101502.27
2018-07-13T13:03:00.369Z,101494.59
2018-07-13T13:05:27.997Z,101488.28
2018-07-13T13:07:56.090Z,101478.01
2018-07-13T13:10:23.719Z,101487.46
2018-07-13T13:12:51.551Z,101478.06
2018-07-13T13:15:19.674Z,101477.56
2018-07-13T13:17:48.380Z,101477.44
2018-07-13T13:20:16.042Z,101481.08
2018-07-13T13:22:44.267Z,101467.78
2018-07-13T13:25:11.912Z,101472.16
2018-07-13T13:27:39.547Z,101464.48
2018-07-13T13:30:07.760Z,101468.95
2018-07-13T13:32:35.386Z,101472.41
2018-07-13T13:35:03.102Z,101465.41
2018-07-13T13:37:31.359Z,101467.66
2018-07-13T13:39:59.063Z,101480.02
2018-07-13T13:42:26.823Z,101481.22
2018-07-13T13:44:54.446Z,101485.53
2018-07-13T13:47:22.057Z,101480.94
2018-07-13T13:49:51.029Z,101478.41
2018-07-13T13:52:19.758Z,101478.93
2018-07-13T13:54:47.321Z,101478.09
2018-07-13T13:57:14.989Z,101480.80
2018-07-13T13:59:42.922Z,101488.84
2018-07-13T14:02:10.513Z,101489.86
2018-07-13T14:04:38.106Z,101490.56
2018-07-13T14:07:05.998Z,101491.58
2018-07-13T14:09:33.606Z,101492.78
2018-07-13T14:12:01.275Z,101484.23
2018-07-13T14:14:29.181Z,101485.43
2018-07-13T14:16:56.832Z,101485.95
2018-07-13T14:19:24.433Z,101487.83
2018-07-13T14:21:52.500Z,101484.07
2018-07-13T14:24:20.424Z,101487.32
2018-07-13T14:26:48.083Z,101481.70
2018-07-13T14:29:15.903Z,101475.70
2018-07-13T14:31:43.604Z,101474.17
2018-07-13T14:34:11.216Z,101469.38
2018-07-13T14:36:39.044Z,101476.39
2018-07-13T14:39:07.991Z,101474.69
2018-07-13T14:41:35.884Z,101482.56
2018-07-13T14:44:04.094Z,101470.90
2018-07-13T14:46:31.791Z,101466.27
2018-07-13T14:48:59.443Z,101456.71
2018-07-13T14:51:27.367Z,101452.62
2018-07-13T14:53:55.038Z,101457.22
2018-07-13T14:56:22.686Z,101456.36
2018-07-13T14:58:50.557Z,101454.82
2018-07-13T15:01:18.207Z,101452.26
2018-07-13T15:03:46.809Z,101453.63
2018-07-13T15:06:14.876Z,101450.56
2018-07-13T15:08:42.446Z,101448.33
2018-07-13T15:11:10.250Z,101452.60
2018-07-13T15:13:38.148Z,101444.58
2018-07-13T15:16:05.763Z,101453.30
2018-07-13T15:18:33.380Z,101447.67
2018-07-13T15:21:01.310Z,101443.23
2018-07-13T15:23:28.928Z,101444.42
2018-07-13T15:25:56.632Z,101447.82
2018-07-13T15:28:24.596Z,101444.59
2018-07-13T15:30:52.277Z,101439.98
2018-07-13T15:33:19.849Z,101441.68
2018-07-13T15:35:48.995Z,101447.84
2018-07-13T15:38:16.663Z,101442.19
2018-07-13T15:40:44.470Z,101442.02
2018-07-13T15:43:12.518Z,101443.09
2018-07-13T15:45:40.190Z,101441.36
2018-07-13T15:48:07.820Z,101439.14
2018-07-13T15:50:35.681Z,101434.00
2018-07-13T15:53:04.249Z,101433.81
2018-07-13T15:55:37.564Z,101425.61
2018-07-13T15:58:05.606Z,101435.32
2018-07-13T16:00:33.220Z,101421.64
2018-07-13T16:03:00.892Z,101427.75
2018-07-13T16:05:28.947Z,101422.22
2018-07-13T16:07:57.254Z,101423.23
2018-07-13T16:10:24.944Z,101338.56
2018-07-13T16:12:53.282Z,101418.56
2018-07-13T16:15:21.845Z,101414.78
2018-07-13T16:17:49.552Z,101423.36
2018-07-13T16:20:17.597Z,101417.88
2018-07-13T16:22:45.326Z,101413.95
2018-07-13T16:25:12.996Z,101406.31
2018-07-13T16:27:41.295Z,101414.22
2018-07-13T16:30:15.546Z,101411.19
2018-07-13T16:32:43.270Z,101408.64
2018-07-13T16:35:10.917Z,101405.05
2018-07-13T16:37:38.684Z,101408.87
2018-07-13T16:40:06.750Z,101409.05
2018-07-13T16:42:35.295Z,101411.62
2018-07-13T16:45:03.016Z,101408.23
2018-07-13T16:47:30.899Z,101403.98
2018-07-13T16:49:58.540Z,101404.77
2018-07-13T16:52:26.182Z,101406.51
2018-07-13T16:54:54.046Z,101410.60
2018-07-13T16:57:21.765Z,101409.92
2018-07-13T16:59:49.527Z,101412.66
2018-07-13T17:02:17.629Z,101408.88
2018-07-13T17:04:45.325Z,101412.30
2018-07-13T17:07:12.977Z,101423.53
2018-07-13T17:09:41.012Z,101418.91
2018-07-13T17:12:08.690Z,101419.19
2018-07-13T17:14:36.305Z,101428.41
2018-07-13T17:17:04.308Z,101429.41
2018-07-13T17:19:32.055Z,101424.78
2018-07-13T17:21:59.777Z,101424.78
2018-07-13T17:24:27.813Z,101423.74
2018-07-13T17:26:55.411Z,101423.71
2018-07-13T17:29:23.204Z,101422.51
2018-07-13T17:31:51.084Z,101422.83
2018-07-13T17:34:18.747Z,101417.67
2018-07-13T17:36:46.388Z,101419.02
2018-07-13T17:39:14.441Z,101417.78
2018-07-13T17:41:42.126Z,101415.84
2018-07-13T17:44:09.824Z,101417.52
2018-07-13T17:46:37.689Z,101414.41
2018-07-13T17:49:05.624Z,101419.64
2018-07-13T17:51:33.398Z,101427.43
2018-07-13T17:54:01.503Z,101420.92
2018-07-13T17:56:29.637Z,101421.90
2018-07-13T17:58:57.331Z,101423.91
2018-07-13T18:01:25.176Z,101427.92
2018-07-13T18:03:52.833Z,101438.59
2018-07-13T18:06:20.480Z,101441.58
2018-07-13T18:08:48.481Z,101440.69
2018-07-13T18:11:16.124Z,101438.44
2018-07-13T18:13:44.279Z,101437.20
2018-07-13T18:16:12.359Z,101451.14
2018-07-13T18:18:39.936Z,101442.91
2018-07-13T18:21:07.622Z,101448.33
2018-07-13T18:23:35.508Z,101445.20
2018-07-13T18:26:03.201Z,101443.30
2018-07-13T18:28:30.775Z,101445.64
2018-07-13T18:30:59.708Z,101447.81
2018-07-13T18:33:27.406Z,101444.69
2018-07-13T18:35:55.072Z,101442.73
2018-07-13T18:38:22.947Z,101436.37
2018-07-13T18:40:50.571Z,101442.89
2018-07-13T18:43:18.359Z,101446.22
2018-07-13T18:45:46.302Z,101442.26
2018-07-13T18:48:13.881Z,101450.20
2018-07-13T18:50:41.587Z,101447.94
2018-07-13T18:53:09.488Z,101449.75
2018-07-13T18:55:37.110Z,101451.41
2018-07-13T18:58:04.849Z,101444.05
2018-07-13T19:00:32.764Z,101444.88
2018-07-13T19:03:00.456Z,101453.48
2018-07-13T19:05:28.654Z,101445.21
2018-07-13T19:07:56.803Z,101447.17
2018-07-13T19:10:24.411Z,101452.53
2018-07-13T19:12:52.384Z,101451.47
2018-07-13T19:15:20.271Z,101451.42
2018-07-13T19:17:47.881Z,101450.02
2018-07-13T19:20:15.542Z,101447.08
2018-07-13T19:22:43.762Z,101450.81
2018-07-13T19:25:11.337Z,101453.68
2018-07-13T19:27:39.001Z,101454.28
2018-07-13T19:30:07.068Z,101452.88
2018-07-13T19:32:34.722Z,101451.82
2018-07-13T19:35:02.368Z,101453.97
2018-07-13T19:37:30.316Z,101454.89
2018-07-13T19:39:58.033Z,101455.19
2018-07-13T19:42:25.729Z,101455.63
2018-07-13T19:44:53.789Z,101454.72
2018-07-13T19:47:21.550Z,101449.38
2018-07-13T19:49:49.872Z,101457.33
2018-07-13T19:52:17.962Z,101447.73
2018-07-13T19:54:45.579Z,101454.32
2018-07-13T19:57:13.268Z,101456.46
2018-07-13T19:59:41.427Z,101457.77
2018-07-13T20:02:09.014Z,101455.98
2018-07-13T20:04:36.842Z,101463.92
2018-07-13T20:07:04.840Z,101455.54
2018-07-13T20:09:32.592Z,101462.61
2018-07-13T20:12:00.232Z,101460.71
2018-07-13T20:14:28.612Z,101458.62
2018-07-13T20:16:56.279Z,101457.56
2018-07-13T20:19:23.955Z,101461.39
2018-07-13T20:21:52.313Z,101449.95
2018-07-13T20:24:19.903Z,101459.36
2018-07-13T20:26:47.576Z,101451.79
2018-07-13T20:29:15.480Z,101450.86
2018-07-13T20:31:43.240Z,101444.36
2018-07-13T20:34:11.141Z,101457.72
2018-07-13T20:36:38.914Z,101451.58
2018-07-13T20:39:06.930Z,101452.87
2018-07-13T20:41:35.824Z,101452.62
2018-07-13T20:44:03.610Z,101446.13
2018-07-13T20:46:31.240Z,101450.34
2018-07-13T20:48:58.873Z,101455.06
2018-07-13T20:51:27.006Z,101457.41
2018-07-13T20:53:54.605Z,101456.33
2018-07-13T20:56:22.295Z,101456.61
2018-07-13T20:58:50.288Z,101454.84
2018-07-13T21:01:17.997Z,101455.12
2018-07-13T21:03:45.667Z,101450.46
2018-07-13T21:06:13.766Z,101452.59
2018-07-13T21:08:41.480Z,101448.45
2018-07-13T21:11:09.123Z,101452.79
2018-07-13T21:13:37.131Z,101451.58
2018-07-13T21:16:04.753Z,101450.36
2018-07-13T21:18:32.359Z,101454.70
2018-07-13T21:21:00.597Z,101453.63
2018-07-13T21:23:28.243Z,101454.25
2018-07-13T21:25:55.856Z,101454.04
2018-07-13T21:28:23.864Z,101450.70
2018-07-13T21:30:51.501Z,101453.20
2018-07-13T21:33:19.244Z,101446.81
2018-07-13T21:35:47.353Z,101456.36
2018-07-13T21:38:14.966Z,101463.41
2018-07-13T21:40:42.670Z,101456.91
2018-07-13T21:43:11.531Z,101461.45
2018-07-13T21:45:39.294Z,101467.87
2018-07-13T21:48:07.192Z,101458.18
2018-07-13T21:50:35.271Z,101461.52
2018-07-13T21:53:02.977Z,101459.21
2018-07-13T21:55:30.627Z,101459.48
2018-07-13T21:57:58.668Z,101457.91
2018-07-13T22:00:26.266Z,101458.53
2018-07-13T22:02:54.157Z,101459.54
2018-07-13T22:05:21.902Z,101458.67
2018-07-13T22:07:49.556Z,101450.08
2018-07-13T22:10:17.421Z,101449.21
2018-07-13T22:12:45.434Z,101454.41
2018-07-13T22:15:13.047Z,101451.48
2018-07-13T22:17:40.684Z,101451.23
2018-07-13T22:20:08.561Z,101449.32
2018-07-13T22:22:36.491Z,101447.72
2018-07-13T22:25:04.174Z,101447.98
2018-07-13T22:27:32.177Z,101448.64
2018-07-13T22:29:59.772Z,101441.00
2018-07-13T22:32:27.554Z,101447.28
2018-07-13T22:34:55.516Z,101450.61
2018-07-13T22:37:23.324Z,101453.80
2018-07-13T22:39:50.949Z,101452.72
2018-07-13T22:42:18.848Z,101448.30
2018-07-13T22:44:46.466Z,101448.44
2018-07-13T22:47:14.075Z,101449.19
2018-07-13T22:49:41.898Z,101448.97
2018-07-13T22:52:09.478Z,101444.66
2018-07-13T22:54:37.117Z,101452.52
2018-07-13T22:57:05.665Z,101448.25
2018-07-13T22:59:33.285Z,101452.92
2018-07-13T23:02:00.912Z,101451.97
2018-07-13T23:04:28.617Z,101455.80
2018-07-13T23:06:56.269Z,101458.91
2018-07-13T23:09:23.842Z,101452.53
2018-07-13T23:11:51.724Z,101450.58
2018-07-13T23:14:19.445Z,101455.03
2018-07-13T23:16:47.111Z,101448.01
2018-07-13T23:19:15.817Z,101445.56
2018-07-13T23:21:44.412Z,101448.91
2018-07-13T23:24:12.057Z,101452.23
2018-07-13T23:26:39.915Z,101449.66
2018-07-13T23:29:08.349Z,101447.95
2018-07-13T23:31:36.002Z,101457.55
2018-07-13T23:34:04.135Z,101450.18
2018-07-13T23:36:31.753Z,101452.14
2018-07-13T23:38:59.622Z,101449.22
2018-07-13T23:41:27.701Z,101444.94
2018-07-13T23:43:55.311Z,101442.45
2018-07-13T23:46:22.980Z,101437.82
2018-07-13T23:48:51.229Z,101442.62
2018-07-13T23:51:18.855Z,101447.28
2018-07-13T23:53:46.486Z,101449.54
2018-07-13T23:56:14.545Z,101444.74
2018-07-13T23:58:42.229Z,101449.41
